Time;durP1;ratioP1;P1;durP2;ratioP2;P2;SDS_P1;SDS_P2;PMS_P1;PMS_P2;Temp;Humidity;BMP_temperature;BMP_pressure;BME280_temperature;BME280_humidity;BME280_pressure;Samples;Min_cycle;Max_cycle;Signal;HPM_P1;HPM_P2
2023/07/10 06:39:20;;;;;;;5.82;4.28;;;24.50;99.90;;;;;;4849334;29;20082;-76
2023/07/10 06:41:47;;;;;;;6.25;4.18;;;24.60;99.90;;;;;;4846303;29;20478;-76
2023/07/10 06:44:15;;;;;;;8.05;4.05;;;24.60;99.90;;;;;;4836704;29;20085;-78
2023/07/10 06:46:41;;;;;;;6.10;4.18;;;24.70;99.90;;;;;;4837677;29;20498;-76
2023/07/10 06:49:08;;;;;;;7.18;4.07;;;24.70;99.90;;;;;;4863058;29;20070;-77
2023/07/10 06:51:36;;;;;;;9.70;4.88;;;24.70;99.90;;;;;;4854891;29;20066;-78
2023/07/10 06:54:03;;;;;;;6.15;3.95;;;24.70;99.90;;;;;;4858850;29;20053;-78
2023/07/10 06:56:31;;;;;;;6.30;3.53;;;24.80;99.90;;;;;;4856300;29;20053;-76
2023/07/10 06:58:57;;;;;;;6.70;4.05;;;24.80;99.90;;;;;;4852827;29;20132;-77
2023/07/10 07:01:24;;;;;;;5.57;3.90;;;24.90;99.90;;;;;;4856163;29;20049;-77
2023/07/10 07:03:51;;;;;;;4.40;3.63;;;24.90;99.90;;;;;;4855669;29;20124;-76
2023/07/10 07:06:18;;;;;;;5.70;3.10;;;25.00;99.90;;;;;;4855703;29;20057;-77
2023/07/10 07:08:49;;;;;;;5.15;3.33;;;25.00;99.90;;;;;;4851990;29;20058;-76
2023/07/10 07:11:16;;;;;;;7.80;3.90;;;25.10;99.90;;;;;;4852015;29;20480;-76
2023/07/10 07:13:42;;;;;;;6.88;3.92;;;25.10;99.90;;;;;;4836843;29;20659;-75
2023/07/10 07:16:10;;;;;;;5.28;3.30;;;25.10;99.90;;;;;;4857798;29;20065;-76
2023/07/10 07:18:36;;;;;;;6.35;3.25;;;25.20;99.90;;;;;;4857225;29;20459;-75
2023/07/10 07:21:03;;;;;;;5.38;2.85;;;25.20;99.90;;;;;;4851539;29;20091;-75
2023/07/10 07:23:30;;;;;;;4.68;2.80;;;25.30;99.90;;;;;;4851406;29;20049;-76
2023/07/10 07:25:57;;;;;;;5.63;2.67;;;25.30;99.90;;;;;;4851746;29;20046;-76
2023/07/10 07:28:24;;;;;;;4.85;3.03;;;25.40;99.90;;;;;;4848783;29;20050;-76
2023/07/10 07:30:51;;;;;;;4.63;2.90;;;25.50;99.90;;;;;;4853818;29;20425;-75
2023/07/10 07:33:19;;;;;;;4.03;2.50;;;25.50;99.90;;;;;;4855000;29;20062;-76
2023/07/10 07:35:46;;;;;;;4.57;2.78;;;25.50;99.90;;;;;;4851958;29;20588;-76
2023/07/10 07:38:14;;;;;;;3.85;2.35;;;25.60;99.90;;;;;;4851023;29;20085;-75
2023/07/10 07:40:41;;;;;;;3.08;2.42;;;25.60;99.90;;;;;;4854574;29;20459;-77
2023/07/10 07:43:08;;;;;;;3.85;2.40;;;25.60;99.90;;;;;;4847469;29;20050;-77
2023/07/10 07:45:34;;;;;;;5.20;3.00;;;25.70;99.90;;;;;;4850885;29;20121;-76
2023/07/10 07:48:01;;;;;;;5.00;2.83;;;25.70;99.90;;;;;;4854163;29;20468;-76
2023/07/10 07:50:28;;;;;;;5.55;3.08;;;25.80;99.90;;;;;;4850350;29;20073;-76
2023/07/10 07:52:55;;;;;;;4.35;2.67;;;25.80;99.90;;;;;;4852863;29;20113;-76
2023/07/10 07:55:22;;;;;;;4.03;2.40;;;25.90;99.90;;;;;;4855589;29;20084;-76
2023/07/10 07:57:48;;;;;;;6.22;2.40;;;25.90;99.90;;;;;;4844876;29;20081;-77
2023/07/10 08:00:15;;;;;;;5.05;2.90;;;26.00;99.90;;;;;;4855035;29;20061;-77
2023/07/10 08:02:43;;;;;;;5.15;2.75;;;26.10;99.90;;;;;;4855117;29;20053;-76
2023/07/10 08:05:10;;;;;;;6.10;2.95;;;26.20;99.90;;;;;;4851832;29;20069;-76
2023/07/10 08:07:57;;;;;;;4.05;2.67;;;26.20;99.90;;;;;;4848360;29;20060;-76
2023/07/10 08:10:23;;;;;;;5.13;2.67;;;26.30;99.90;;;;;;4853991;29;20050;-76
2023/07/10 08:12:50;;;;;;;4.82;2.65;;;26.30;99.90;;;;;;4845253;29;20058;-76
2023/07/10 08:15:17;;;;;;;3.78;2.75;;;26.30;99.90;;;;;;4855224;29;20067;-76
2023/07/10 08:17:44;;;;;;;9.05;3.15;;;26.30;99.90;;;;;;4853386;29;20106;-77
2023/07/10 08:20:11;;;;;;;3.22;2.70;;;26.30;99.90;;;;;;4851979;29;20049;-76
2023/07/10 08:22:37;;;;;;;5.70;2.97;;;26.40;99.90;;;;;;4847116;29;20180;-77
2023/07/10 08:25:06;;;;;;;4.47;2.97;;;26.40;99.90;;;;;;4851673;29;20046;-76
2023/07/10 08:27:33;;;;;;;6.45;3.20;;;26.40;99.90;;;;;;4828994;29;20064;-77
2023/07/10 08:30:01;;;;;;;6.97;4.03;;;26.50;99.90;;;;;;4841779;29;20053;-77
2023/07/10 08:32:27;;;;;;;6.63;3.00;;;26.50;99.90;;;;;;4853707;29;20129;-77
2023/07/10 08:34:54;;;;;;;5.75;3.40;;;26.60;99.90;;;;;;4848782;29;20050;-77
2023/07/10 08:37:21;;;;;;;4.93;3.42;;;26.70;99.90;;;;;;4849745;29;20057;-76
2023/07/10 08:39:49;;;;;;;6.70;3.42;;;26.70;99.90;;;;;;4870307;23;20076;-79
2023/07/10 08:42:20;;;;;;;4.40;3.10;;;26.80;99.90;;;;;;4849982;29;20091;-79
2023/07/10 08:44:51;;;;;;;2.97;2.67;;;26.90;99.90;;;;;;4848712;29;20606;-79
2023/07/10 08:47:22;;;;;;;6.22;3.85;;;26.90;99.90;;;;;;4831847;29;20084;-79
2023/07/10 08:50:25;;;;;;;6.07;3.70;;;27.00;99.90;;;;;;4844551;29;20066;-79
2023/07/10 08:53:08;;;;;;;7.32;3.95;;;27.00;99.90;;;;;;4842339;29;20156;-79
2023/07/10 08:55:56;;;;;;;6.38;3.60;;;27.10;99.90;;;;;;4847693;29;20079;-79
2023/07/10 08:58:27;;;;;;;6.63;3.58;;;27.20;99.90;;;;;;4847753;29;20054;-79
2023/07/10 09:01:00;;;;;;;4.85;3.42;;;27.20;99.90;;;;;;4848482;29;20051;-79
2023/07/10 09:03:46;;;;;;;3.47;3.00;;;27.30;99.90;;;;;;4850317;29;20077;-79
2023/07/10 09:06:32;;;;;;;5.03;3.47;;;27.40;99.90;;;;;;4853159;29;20058;-79
2023/07/10 09:09:01;;;;;;;6.15;3.17;;;27.40;99.90;;;;;;4849038;29;20087;-79
2023/07/10 09:11:28;;;;;;;5.38;3.22;;;27.50;99.90;;;;;;4846826;29;20534;-79
2023/07/10 09:14:20;;;;;;;5.45;3.05;;;27.50;99.90;;;;;;4853077;29;20502;-80
2023/07/10 09:16:49;;;;;;;4.22;2.78;;;27.60;99.90;;;;;;4851803;29;20083;-79
2023/07/10 09:19:19;;;;;;;6.78;3.22;;;27.70;99.90;;;;;;4853620;29;20535;-79
2023/07/10 09:21:46;;;;;;;5.55;3.13;;;27.80;99.90;;;;;;4855799;29;20105;-79
2023/07/10 09:24:22;;;;;;;4.65;3.28;;;27.80;99.90;;;;;;4847731;29;20053;-79
2023/07/10 09:26:49;;;;;;;6.60;3.65;;;27.80;99.90;;;;;;4850139;29;20058;-80
2023/07/10 09:29:33;;;;;;;5.85;3.88;;;27.90;99.90;;;;;;4852938;29;20054;-79
2023/07/10 09:32:13;;;;;;;6.63;3.80;;;28.00;99.90;;;;;;4848366;29;20066;-79
2023/07/10 09:34:53;;;;;;;3.55;2.92;;;28.10;99.90;;;;;;4850409;29;20060;-79
2023/07/10 09:37:23;;;;;;;8.65;3.72;;;28.10;99.90;;;;;;4849505;29;20058;-79
2023/07/10 09:39:50;;;;;;;6.70;3.60;;;28.20;99.90;;;;;;4846321;29;20496;-79
2023/07/10 09:42:30;;;;;;;10.40;3.40;;;28.30;99.90;;;;;;4848528;29;20057;-79
2023/07/10 09:44:58;;;;;;;;;;;28.30;99.90;;;;;;4850135;29;20053;-79
2023/07/10 09:47:40;;;;;;;6.47;3.33;;;28.40;99.90;;;;;;4861501;29;19936;-80
2023/07/10 09:50:17;;;;;;;5.93;3.30;;;28.40;99.90;;;;;;4850555;29;20042;-79
2023/07/10 09:52:55;;;;;;;7.65;3.78;;;28.40;99.90;;;;;;4848707;29;20397;-80
2023/07/10 09:55:23;;;;;;;4.95;3.15;;;28.40;99.90;;;;;;4863724;29;20058;-79
2023/07/10 09:57:51;;;;;;;5.90;3.13;;;28.40;99.90;;;;;;4850950;29;20356;-79
2023/07/10 10:00:19;;;;;;;5.30;4.03;;;28.40;99.90;;;;;;4850916;29;20058;-80
2023/07/10 10:02:52;;;;;;;5.28;3.85;;;28.50;99.90;;;;;;4849202;29;20080;-80
2023/07/10 10:05:19;;;;;;;6.05;3.60;;;28.50;99.90;;;;;;4850612;29;20047;-80
2023/07/10 10:07:51;;;;;;;7.90;3.47;;;28.50;99.90;;;;;;4843531;29;20079;-79
2023/07/10 10:10:23;;;;;;;4.68;3.55;;;28.50;99.90;;;;;;4850505;29;20125;-80
2023/07/10 10:13:06;;;;;;;5.95;3.88;;;28.60;99.90;;;;;;4852806;29;20098;-80
2023/07/10 10:16:06;;;;;;;6.93;3.63;;;28.70;99.90;;;;;;4834134;29;20077;-80
2023/07/10 10:18:49;;;;;;;7.25;3.50;;;28.80;99.90;;;;;;4847036;29;20049;-80
2023/07/10 10:21:19;;;;;;;6.43;3.63;;;28.90;99.90;;;;;;4846209;29;20058;-80
2023/07/10 10:23:49;;;;;;;4.35;3.25;;;29.00;99.90;;;;;;4847659;29;20049;-80
2023/07/10 10:26:35;;;;;;;6.32;3.78;;;29.00;99.90;;;;;;4854818;29;20106;-79
2023/07/10 10:29:30;;;;;;;6.30;3.47;;;29.00;99.90;;;;;;4856663;29;20630;-80
2023/07/10 10:32:08;;;;;;;5.55;3.55;;;29.10;99.90;;;;;;4866345;29;20078;-80
2023/07/10 10:34:56;;;;;;;5.38;3.47;;;29.10;99.90;;;;;;4853001;29;20450;-80
2023/07/10 10:37:31;;;;;;;5.40;3.90;;;29.20;99.90;;;;;;4855091;29;20053;-80
2023/07/10 10:40:36;;;;;;;7.97;3.38;;;29.20;99.90;;;;;;4849784;29;20041;-79
2023/07/10 10:43:25;;;;;;;7.15;3.72;;;29.20;99.90;;;;;;4858076;29;20053;-81
2023/07/10 10:46:00;;;;;;;6.97;4.15;;;29.20;99.90;;;;;;4865560;29;20098;-81
2023/07/10 10:48:57;;;;;;;7.85;3.90;;;29.20;99.90;;;;;;4851026;29;20077;-80
2023/07/10 10:51:41;;;;;;;4.95;3.33;;;29.20;99.90;;;;;;4859924;29;20115;-79
2023/07/10 10:54:27;;;;;;;5.80;3.95;;;29.10;99.90;;;;;;4848608;29;20057;-80
2023/07/10 10:57:12;;;;;;;6.15;3.72;;;29.20;99.90;;;;;;4849117;29;20081;-80
2023/07/10 10:59:50;;;;;;;6.20;3.90;;;29.20;99.90;;;;;;4847348;29;20107;-80
2023/07/10 11:02:38;;;;;;;4.85;3.67;;;29.20;99.90;;;;;;4847488;29;20046;-80
2023/07/10 11:05:36;;;;;;;9.88;4.20;;;29.20;99.90;;;;;;4848511;29;20054;-80
2023/07/10 11:08:18;;;;;;;7.13;3.80;;;29.10;99.90;;;;;;4849561;29;20057;-81
2023/07/10 11:10:46;;;;;;;7.97;4.00;;;29.20;99.90;;;;;;4848216;29;20079;-80
2023/07/10 11:13:36;;;;;;;6.20;3.78;;;29.20;99.90;;;;;;4848189;29;20059;-80
2023/07/10 11:16:05;;;;;;;5.93;3.75;;;29.20;99.90;;;;;;4849147;29;20058;-80
2023/07/10 11:18:33;;;;;;;5.07;3.65;;;29.30;99.90;;;;;;4847406;29;20058;-80
2023/07/10 11:21:02;;;;;;;5.65;3.70;;;29.30;99.90;;;;;;4848788;29;20060;-80
2023/07/10 11:23:43;;;;;;;6.18;4.03;;;29.30;99.90;;;;;;4849455;29;20050;-80
2023/07/10 11:26:22;;;;;;;5.93;4.65;;;29.40;99.90;;;;;;4849019;29;20053;-80
2023/07/10 11:28:55;;;;;;;5.10;3.83;;;29.40;99.90;;;;;;4838383;29;20065;-79
2023/07/10 11:31:36;;;;;;;6.07;3.95;;;29.50;99.90;;;;;;4838931;29;20074;-80
2023/07/10 11:34:06;;;;;;;6.63;3.40;;;29.50;99.90;;;;;;4839930;29;20079;-79
2023/07/10 11:36:32;;;;;;;8.38;4.65;;;29.60;99.90;;;;;;4836253;29;20054;-79
2023/07/10 11:39:05;;;;;;;5.22;3.60;;;29.60;99.90;;;;;;4840005;29;20042;-79
2023/07/10 11:41:36;;;;;;;6.30;3.80;;;29.70;99.90;;;;;;4840324;29;20050;-79
2023/07/10 11:44:31;;;;;;;6.35;3.90;;;29.70;99.90;;;;;;4842595;29;20046;-79
2023/07/10 11:47:01;;;;;;;5.97;3.70;;;29.70;99.90;;;;;;4843368;29;20125;-79
2023/07/10 11:49:46;;;;;;;7.15;3.70;;;29.80;99.90;;;;;;4846107;29;20481;-78
2023/07/10 11:52:15;;;;;;;8.18;3.63;;;29.80;99.90;;;;;;4842152;29;20130;-80
2023/07/10 11:54:48;;;;;;;5.05;3.28;;;29.80;99.90;;;;;;4848053;29;20085;-80
2023/07/10 11:57:22;;;;;;;6.97;3.47;;;29.90;99.90;;;;;;4841365;29;20057;-79
2023/07/10 12:00:21;;;;;;;5.80;3.70;;;29.90;99.90;;;;;;4835536;29;20046;-79
2023/07/10 12:02:52;;;;;;;5.70;3.22;;;30.00;99.90;;;;;;4838260;29;20072;-79
2023/07/10 12:05:21;;;;;;;5.35;3.40;;;30.00;99.90;;;;;;4837122;29;20052;-79
2023/07/10 12:07:55;;;;;;;5.32;3.70;;;30.00;99.90;;;;;;4847619;29;20123;-80
2023/07/10 12:10:29;;;;;;;8.35;3.85;;;30.10;99.90;;;;;;4840719;29;20059;-79
2023/07/10 12:12:57;;;;;;;6.35;3.85;;;30.10;99.90;;;;;;4838860;29;20419;-80
2023/07/10 12:15:26;;;;;;;6.55;3.65;;;30.20;99.90;;;;;;4836760;29;20051;-79
2023/07/10 12:17:54;;;;;;;9.35;3.75;;;30.20;99.90;;;;;;4840411;29;20046;-80
2023/07/10 12:20:28;;;;;;;6.68;3.67;;;30.30;99.90;;;;;;4853775;29;20050;-80
2023/07/10 12:23:02;;;;;;;7.03;3.90;;;30.30;99.90;;;;;;4862214;29;20062;-80
2023/07/10 12:25:29;;;;;;;5.00;3.53;;;30.30;99.90;;;;;;4845038;29;20054;-80
2023/07/10 12:28:02;;;;;;;6.15;3.25;;;30.40;99.90;;;;;;4845058;29;20051;-80
2023/07/10 12:30:50;;;;;;;6.60;3.45;;;30.40;99.90;;;;;;4842256;29;20050;-80
2023/07/10 12:33:41;;;;;;;6.20;3.43;;;30.40;99.90;;;;;;4846517;29;20053;-80
2023/07/10 12:36:26;;;;;;;6.15;4.57;;;30.40;99.90;;;;;;4846673;29;20552;-80
2023/07/10 12:38:56;;;;;;;4.22;3.10;;;30.40;99.90;;;;;;4822323;29;20059;-80
2023/07/10 12:41:23;;;;;;;4.05;3.25;;;30.50;99.90;;;;;;4841019;29;20058;-80
2023/07/10 12:43:53;;;;;;;6.00;3.97;;;30.50;99.90;;;;;;4840861;29;20054;-80
2023/07/10 12:46:25;;;;;;;7.05;3.60;;;30.50;99.90;;;;;;4836079;29;20050;-80
2023/07/10 12:49:14;;;;;;;7.68;3.67;;;30.50;99.90;;;;;;4859204;29;20071;-80
2023/07/10 12:51:44;;;;;;;6.57;3.47;;;30.50;99.90;;;;;;4847456;29;20557;-80
2023/07/10 12:54:23;;;;;;;4.68;2.95;;;30.60;99.90;;;;;;4838474;29;20050;-79
2023/07/10 12:56:52;;;;;;;5.70;4.15;;;30.60;99.90;;;;;;4857285;29;20050;-80
2023/07/10 12:59:32;;;;;;;3.60;3.30;;;30.60;99.90;;;;;;4841785;29;20054;-79
2023/07/10 13:02:01;;;;;;;5.30;3.50;;;30.60;99.90;;;;;;4838491;29;20852;-80
2023/07/10 13:04:37;;;;;;;10.57;3.77;;;30.70;99.90;;;;;;4849992;29;20057;-81
2023/07/10 13:07:07;;;;;;;7.25;3.60;;;30.70;99.90;;;;;;4849447;29;20070;-80
2023/07/10 13:09:56;;;;;;;5.35;3.55;;;30.60;99.90;;;;;;4843215;29;20088;-80
2023/07/10 13:12:35;;;;;;;4.65;3.55;;;30.70;99.90;;;;;;4843256;29;20070;-80
2023/07/10 13:15:04;;;;;;;4.13;3.20;;;30.60;99.90;;;;;;4819594;29;20059;-79
2023/07/10 13:17:36;;;;;;;3.63;3.13;;;30.70;99.90;;;;;;4855447;29;20079;-80
2023/07/10 13:20:16;;;;;;;5.93;3.75;;;30.70;99.90;;;;;;4842754;29;20058;-79
2023/07/10 13:22:43;;;;;;;6.13;3.38;;;30.70;99.90;;;;;;4839539;29;20075;-80
2023/07/10 13:25:11;;;;;;;5.90;3.40;;;30.70;99.90;;;;;;4839666;29;20050;-79
2023/07/10 13:27:37;;;;;;;6.80;3.25;;;30.70;99.90;;;;;;4846845;29;20048;-80
2023/07/10 13:30:18;;;;;;;4.20;3.10;;;30.80;99.90;;;;;;4840425;29;20079;-80
2023/07/10 13:32:46;;;;;;;4.40;3.15;;;30.80;99.90;;;;;;4846246;29;20053;-80
2023/07/10 13:35:14;;;;;;;6.28;3.47;;;30.80;99.90;;;;;;4843717;29;20423;-79
2023/07/10 13:37:41;;;;;;;5.78;3.28;;;30.90;99.90;;;;;;4846115;29;20050;-80
2023/07/10 13:40:17;;;;;;;6.82;3.83;;;30.90;99.90;;;;;;4841621;29;20050;-80
2023/07/10 13:42:43;;;;;;;6.65;2.92;;;30.90;99.90;;;;;;4848205;29;20057;-80
2023/07/10 13:45:10;;;;;;;4.75;3.20;;;31.00;99.90;;;;;;4840783;29;20102;-80
2023/07/10 13:47:37;;;;;;;6.78;3.25;;;31.00;99.90;;;;;;4845921;29;20082;-80
2023/07/10 13:50:04;;;;;;;4.65;3.40;;;31.00;99.90;;;;;;4846576;29;20081;-79
2023/07/10 13:52:31;;;;;;;3.95;3.10;;;31.10;99.90;;;;;;4846329;29;20442;-80
2023/07/10 13:54:58;;;;;;;5.55;3.13;;;31.10;99.90;;;;;;4840502;29;20057;-80
2023/07/10 13:57:28;;;;;;;4.05;3.35;;;31.10;99.90;;;;;;4844658;29;20054;-80
2023/07/10 14:00:01;;;;;;;7.35;3.05;;;31.10;99.90;;;;;;4840619;29;20046;-80
2023/07/10 14:02:30;;;;;;;6.68;2.90;;;31.20;99.90;;;;;;4843111;29;20481;-80
2023/07/10 14:04:59;;;;;;;5.88;3.17;;;31.20;99.90;;;;;;4849650;29;20079;-81
2023/07/10 14:07:28;;;;;;;4.22;3.30;;;31.30;99.90;;;;;;4844428;29;20515;-80
2023/07/10 14:09:58;;;;;;;4.77;3.93;;;31.40;99.90;;;;;;4842418;29;20053;-80
2023/07/10 14:12:28;;;;;;;;;;;31.40;99.90;;;;;;4845358;29;20054;-80
2023/07/10 14:15:02;;;;;;;4.18;3.13;;;31.40;99.90;;;;;;4840837;29;19925;-80
2023/07/10 14:17:34;;;;;;;6.13;2.90;;;31.50;99.90;;;;;;4840904;29;20061;-80
2023/07/10 14:20:01;;;;;;;8.73;3.20;;;31.50;99.90;;;;;;4846818;29;20393;-79
2023/07/10 14:22:28;;;;;;;4.85;3.17;;;31.50;99.90;;;;;;4844070;29;20107;-80
2023/07/10 14:24:55;;;;;;;6.88;3.00;;;31.60;99.90;;;;;;4829138;29;20050;-80
2023/07/10 14:27:23;;;;;;;4.45;3.42;;;31.50;99.90;;;;;;4843151;29;20090;-79
2023/07/10 14:29:51;;;;;;;5.68;3.60;;;31.60;99.90;;;;;;4844438;29;20050;-79
2023/07/10 14:32:20;;;;;;;6.57;3.17;;;31.60;99.90;;;;;;4849400;29;20157;-80
2023/07/10 14:34:48;;;;;;;5.13;3.40;;;31.60;99.90;;;;;;4850441;29;20054;-80
2023/07/10 14:37:19;;;;;;;5.60;3.08;;;31.60;99.90;;;;;;4848477;29;20523;-80
2023/07/10 14:39:47;;;;;;;4.60;2.88;;;31.70;99.90;;;;;;4856584;23;20087;-80
2023/07/10 14:42:20;;;;;;;5.35;2.95;;;31.70;99.90;;;;;;4844075;29;20056;-80
2023/07/10 14:44:47;;;;;;;4.72;2.90;;;31.70;99.90;;;;;;4844457;29;20042;-80
2023/07/10 14:47:25;;;;;;;3.67;2.95;;;31.70;99.90;;;;;;4840541;29;20114;-81
2023/07/10 14:49:52;;;;;;;5.57;3.00;;;31.70;99.90;;;;;;4843807;29;20115;-81
2023/07/10 14:52:21;;;;;;;7.80;4.10;;;31.70;99.90;;;;;;4840064;29;20062;-79
2023/07/10 14:54:53;;;;;;;4.85;3.30;;;31.80;99.90;;;;;;4842970;29;20050;-79
2023/07/10 14:57:34;;;;;;;4.45;3.00;;;31.80;99.90;;;;;;4844394;29;20058;-80
2023/07/10 15:00:05;;;;;;;5.00;3.03;;;31.80;99.90;;;;;;4840264;29;20066;-80
2023/07/10 15:02:32;;;;;;;4.28;2.88;;;31.80;99.90;;;;;;4843775;29;20118;-81
2023/07/10 15:04:59;;;;;;;5.97;3.20;;;31.80;99.90;;;;;;4842896;29;20681;-81
2023/07/10 15:07:26;;;;;;;7.00;3.63;;;31.80;99.90;;;;;;4846425;29;20057;-81
2023/07/10 15:09:53;;;;;;;3.63;3.08;;;31.80;99.90;;;;;;4845910;29;20584;-81
2023/07/10 15:12:21;;;;;;;6.03;3.05;;;31.80;99.90;;;;;;4846005;29;20058;-80
2023/07/10 15:14:48;;;;;;;6.80;2.97;;;31.80;99.90;;;;;;4847523;29;20447;-81
2023/07/10 15:17:23;;;;;;;4.63;2.95;;;31.80;99.90;;;;;;4840522;29;20074;-80
2023/07/10 15:19:52;;;;;;;3.45;2.85;;;31.80;99.90;;;;;;4846266;29;20046;-81
2023/07/10 15:22:20;;;;;;;5.10;2.95;;;31.80;99.90;;;;;;4846990;29;20053;-82
2023/07/10 15:24:48;;;;;;;3.45;3.15;;;31.80;99.90;;;;;;4848401;29;20052;-80
2023/07/10 15:27:16;;;;;;;6.03;3.20;;;31.80;99.90;;;;;;4846033;29;20110;-80
2023/07/10 15:29:43;;;;;;;5.90;3.85;;;31.80;99.90;;;;;;4847505;29;20057;-80
2023/07/10 15:32:15;;;;;;;5.25;2.80;;;31.80;99.90;;;;;;4843495;29;20075;-80
2023/07/10 15:34:46;;;;;;;3.90;2.75;;;31.80;99.90;;;;;;4843054;29;20117;-80
2023/07/10 15:37:31;;;;;;;8.93;2.92;;;31.80;99.90;;;;;;4851981;29;20057;-80
2023/07/10 15:39:58;;;;;;;10.48;3.47;;;31.80;99.90;;;;;;4850725;29;20052;-81
2023/07/10 15:42:26;;;;;;;7.13;3.13;;;31.80;99.90;;;;;;4844552;29;20046;-81
2023/07/10 15:44:53;;;;;;;5.97;3.08;;;31.80;99.90;;;;;;4864705;29;20045;-80
2023/07/10 15:47:22;;;;;;;6.85;3.10;;;31.70;99.90;;;;;;4864378;29;20053;-82
2023/07/10 15:49:49;;;;;;;5.10;3.10;;;31.70;99.90;;;;;;4865079;29;20084;-81
2023/07/10 15:52:30;;;;;;;4.82;3.00;;;31.70;99.90;;;;;;4862102;29;20314;-81
2023/07/10 15:55:04;;;;;;;6.80;3.08;;;31.70;99.90;;;;;;4863238;29;20458;-80
2023/07/10 15:57:31;;;;;;;4.38;3.40;;;31.70;99.90;;;;;;4864029;29;20056;-81
2023/07/10 15:59:58;;;;;;;5.85;3.38;;;31.70;99.90;;;;;;4865433;29;20049;-81
2023/07/10 16:02:27;;;;;;;10.30;3.30;;;31.70;99.90;;;;;;4864720;29;20077;-81
2023/07/10 16:04:54;;;;;;;7.68;3.67;;;31.70;99.90;;;;;;4865509;29;20049;-81
2023/07/10 16:07:21;;;;;;;4.53;3.10;;;31.70;99.90;;;;;;4864146;29;20503;-80
2023/07/10 16:09:48;;;;;;;6.75;3.30;;;31.70;99.90;;;;;;4863531;29;20717;-81
2023/07/10 16:12:15;;;;;;;5.25;3.13;;;31.60;99.90;;;;;;4865026;29;20057;-81
2023/07/10 16:14:42;;;;;;;6.38;3.05;;;31.70;99.90;;;;;;4865825;29;20057;-81
2023/07/10 16:17:12;;;;;;;6.30;3.60;;;31.60;99.90;;;;;;4864898;29;20049;-82
2023/07/10 16:19:41;;;;;;;6.10;3.03;;;31.60;99.90;;;;;;4841401;29;20128;-80
2023/07/10 16:22:13;;;;;;;5.35;3.30;;;31.60;99.90;;;;;;4864122;29;20117;-80
2023/07/10 16:24:42;;;;;;;4.53;3.15;;;31.60;99.90;;;;;;4863806;29;20066;-81
2023/07/10 16:27:12;;;;;;;6.43;3.30;;;31.60;99.90;;;;;;4864533;29;20051;-80
2023/07/10 16:29:39;;;;;;;6.60;3.13;;;31.60;99.90;;;;;;4865919;29;20290;-81
2023/07/10 16:32:16;;;;;;;6.75;3.20;;;31.60;99.90;;;;;;4863186;29;20053;-81
2023/07/10 16:34:43;;;;;;;4.80;3.15;;;31.60;99.90;;;;;;4865836;29;20510;-83
2023/07/10 16:37:13;;;;;;;4.20;3.22;;;31.60;99.90;;;;;;4864611;29;20057;-82
2023/07/10 16:39:41;;;;;;;7.55;3.17;;;31.50;99.90;;;;;;4866276;29;20056;-82
2023/07/10 16:42:16;;;;;;;6.68;3.10;;;31.50;99.90;;;;;;4865380;29;20049;-82
2023/07/10 16:44:43;;;;;;;5.03;3.40;;;31.50;99.90;;;;;;4866318;29;20057;-82
2023/07/10 16:47:17;;;;;;;9.30;3.95;;;31.50;99.90;;;;;;4848874;29;20041;-81
2023/07/10 16:49:45;;;;;;;4.53;3.15;;;31.50;99.90;;;;;;4865335;29;20125;-82
2023/07/10 16:52:13;;;;;;;7.05;3.35;;;31.40;99.90;;;;;;4866831;29;20053;-81
2023/07/10 16:54:40;;;;;;;8.25;3.25;;;31.40;99.90;;;;;;4866386;29;20571;-82
2023/07/10 16:57:16;;;;;;;6.90;3.35;;;31.40;99.90;;;;;;4854440;29;20057;-81
2023/07/10 16:59:44;;;;;;;12.10;3.97;;;31.40;99.90;;;;;;4865763;29;20045;-82
2023/07/10 17:02:28;;;;;;;4.90;3.13;;;31.30;99.90;;;;;;4864968;29;20079;-80
2023/07/10 17:04:55;;;;;;;5.78;4.10;;;31.30;99.90;;;;;;4849157;29;20101;-82
2023/07/10 17:07:22;;;;;;;5.28;3.28;;;31.30;99.90;;;;;;4864956;29;20057;-83
2023/07/10 17:09:49;;;;;;;6.43;3.20;;;31.20;99.90;;;;;;4864432;29;20111;-82
2023/07/10 17:12:17;;;;;;;4.60;3.40;;;31.20;99.90;;;;;;4865767;29;20049;-81
2023/07/10 17:14:44;;;;;;;4.85;3.55;;;31.20;99.90;;;;;;4864871;29;20098;-83
2023/07/10 17:17:19;;;;;;;7.82;3.75;;;31.20;99.90;;;;;;4865255;29;20049;-81
2023/07/10 17:19:47;;;;;;;7.13;3.72;;;31.20;99.90;;;;;;4864452;29;20185;-81
2023/07/10 17:22:21;;;;;;;6.32;3.60;;;31.10;99.90;;;;;;4866374;29;20050;-82
2023/07/10 17:24:52;;;;;;;7.07;3.60;;;31.10;99.90;;;;;;4865461;29;20046;-82
2023/07/10 17:27:18;;;;;;;5.55;3.67;;;31.10;99.90;;;;;;4862518;29;20056;-83
2023/07/10 17:29:45;;;;;;;7.93;3.72;;;31.10;99.90;;;;;;4865747;29;20082;-83
2023/07/10 17:32:15;;;;;;;5.78;3.42;;;31.00;99.90;;;;;;4866801;29;20061;-81
2023/07/10 17:34:43;;;;;;;5.50;3.70;;;31.00;99.90;;;;;;4866311;29;20126;-82
2023/07/10 17:37:15;;;;;;;7.18;3.28;;;31.00;99.90;;;;;;4864625;29;20611;-82
2023/07/10 17:39:42;;;;;;;6.45;3.50;;;31.00;99.90;;;;;;4864552;29;20057;-82
2023/07/10 17:42:19;;;;;;;5.05;3.40;;;30.90;99.90;;;;;;4864653;29;20049;-83
2023/07/10 17:44:46;;;;;;;10.02;4.22;;;30.90;99.90;;;;;;4864448;29;20094;-81
2023/07/10 17:47:18;;;;;;;8.93;4.00;;;30.80;99.90;;;;;;4862884;29;20061;-82
2023/07/10 17:49:45;;;;;;;7.43;4.10;;;30.80;99.90;;;;;;4865759;29;20091;-82
2023/07/10 17:52:14;;;;;;;11.02;4.60;;;30.80;99.90;;;;;;4865277;29;20061;-82
2023/07/10 17:54:44;;;;;;;9.63;4.05;;;30.70;99.90;;;;;;4865316;29;20062;-81
2023/07/10 17:57:16;;;;;;;5.60;4.00;;;30.70;99.90;;;;;;4848975;29;20053;-82
2023/07/10 17:59:46;;;;;;;5.18;3.72;;;30.60;99.90;;;;;;4864561;29;20061;-80
2023/07/10 18:02:34;;;;;;;6.68;3.60;;;30.60;99.90;;;;;;4865230;29;20078;-82
2023/07/10 18:05:17;;;;;;;7.78;4.15;;;30.60;99.90;;;;;;4862302;29;20049;-83
2023/07/10 18:07:44;;;;;;;7.18;3.40;;;30.50;99.90;;;;;;4865361;29;20430;-80
2023/07/10 18:10:12;;;;;;;4.95;3.63;;;30.50;99.90;;;;;;4864309;29;20053;-78
2023/07/10 18:12:39;;;;;;;13.13;4.60;;;30.50;99.90;;;;;;4838922;29;20133;-83
2023/07/10 18:15:19;;;;;;;8.27;3.95;;;30.50;99.90;;;;;;4861852;29;20408;-81
2023/07/10 18:17:46;;;;;;;7.40;3.83;;;30.40;99.90;;;;;;4853164;29;20460;-82
2023/07/10 18:20:15;;;;;;;5.68;3.90;;;30.40;99.90;;;;;;4864776;29;20053;-82
2023/07/10 18:22:42;;;;;;;6.43;4.40;;;30.30;99.90;;;;;;4864630;29;20090;-79
2023/07/10 18:25:17;;;;;;;8.13;3.30;;;30.30;99.90;;;;;;4864849;29;20488;-80
2023/07/10 18:27:45;;;;;;;9.00;4.10;;;30.20;99.90;;;;;;4846880;29;20050;-82
2023/07/10 18:30:14;;;;;;;5.20;3.95;;;30.20;99.90;;;;;;4862181;29;20065;-81
2023/07/10 18:32:41;;;;;;;8.55;4.45;;;30.20;99.90;;;;;;4864052;29;20057;-81
2023/07/10 18:35:17;;;;;;;8.32;4.18;;;30.10;99.90;;;;;;4861433;29;20460;-82
2023/07/10 18:37:44;;;;;;;9.10;4.05;;;30.10;99.90;;;;;;4864817;29;20057;-82
2023/07/10 18:40:12;;;;;;;8.75;4.35;;;30.00;99.90;;;;;;4864524;29;20095;-82
2023/07/10 18:42:38;;;;;;;7.22;5.15;;;30.00;99.90;;;;;;4865328;29;20136;-81
2023/07/10 18:45:18;;;;;;;7.43;4.90;;;29.90;99.90;;;;;;4868173;29;20101;-82
2023/07/10 18:47:45;;;;;;;6.00;4.22;;;29.90;99.90;;;;;;4866868;29;20130;-82
2023/07/10 18:50:14;;;;;;;8.82;4.40;;;29.80;99.90;;;;;;4864333;29;20066;-82
2023/07/10 18:52:42;;;;;;;7.55;4.65;;;29.80;99.90;;;;;;4867578;29;20053;-80
2023/07/10 18:55:18;;;;;;;5.90;3.97;;;29.70;99.90;;;;;;4867946;29;20050;-79
2023/07/10 18:57:47;;;;;;;10.82;4.97;;;29.60;99.90;;;;;;4867546;29;20128;-83
2023/07/10 19:00:19;;;;;;;5.63;4.05;;;29.60;99.90;;;;;;4859770;29;20242;-82
2023/07/10 19:02:46;;;;;;;7.28;3.85;;;29.60;99.90;;;;;;4867463;29;20056;-83
2023/07/10 19:05:13;;;;;;;11.38;4.40;;;29.50;99.90;;;;;;4864695;29;20049;-82
2023/07/10 19:07:40;;;;;;;9.07;4.45;;;29.40;99.90;;;;;;4868236;29;20496;-83
2023/07/10 19:10:16;;;;;;;7.72;4.03;;;29.40;99.90;;;;;;4851116;29;20049;-82
2023/07/10 19:12:43;;;;;;;9.48;4.05;;;29.30;99.90;;;;;;4849483;29;20057;-83
2023/07/10 19:15:10;;;;;;;13.55;5.07;;;29.30;99.90;;;;;;4864784;29;20082;-78
2023/07/10 19:17:37;;;;;;;5.38;4.65;;;29.20;99.90;;;;;;4867475;29;20137;-83
2023/07/10 19:20:04;;;;;;;7.93;4.82;;;29.20;99.90;;;;;;4863650;29;20045;-82
2023/07/10 19:22:31;;;;;;;8.77;4.85;;;29.10;99.90;;;;;;4867702;29;20061;-82
2023/07/10 19:25:03;;;;;;;8.07;4.22;;;29.00;99.90;;;;;;4865898;29;20049;-81
2023/07/10 19:27:30;;;;;;;8.45;4.65;;;28.90;99.90;;;;;;4849942;29;20105;-82
2023/07/10 19:29:56;;;;;;;7.10;4.60;;;28.90;99.90;;;;;;4866025;29;20046;-81
2023/07/10 19:32:24;;;;;;;7.28;4.57;;;28.80;99.90;;;;;;4865376;29;20069;-81
2023/07/10 19:34:52;;;;;;;8.40;4.40;;;28.70;99.90;;;;;;4850552;29;20050;-83
2023/07/10 19:37:19;;;;;;;9.07;5.07;;;28.60;99.90;;;;;;4864850;29;20049;-81
2023/07/10 19:39:47;;;;;;;7.15;4.90;;;28.60;99.90;;;;;;4866070;29;20053;-81
2023/07/10 19:42:14;;;;;;;6.28;4.38;;;28.50;99.90;;;;;;4864890;29;20101;-82
2023/07/10 19:44:48;;;;;;;7.18;4.50;;;28.40;99.90;;;;;;4864115;29;20060;-80
2023/07/10 19:47:17;;;;;;;8.88;4.57;;;28.30;99.90;;;;;;4866552;29;20045;-81
2023/07/10 19:49:45;;;;;;;5.93;3.88;;;28.30;99.90;;;;;;4866389;29;20053;-82